sensor_id;sensor_type;location;lat;lon;timestamp;pressure;altitude;pressure_sealevel;temperature;humidity
10145;BME280;5113;41.822;23.564;2022-09-04T00:00:14;-11353.81;;;15.15;100.00
10145;BME280;5113;41.822;23.564;2022-09-04T00:03:33;-11339.75;;;14.65;100.00
10145;BME280;5113;41.822;23.564;2022-09-04T00:06:53;-11336.94;;;14.54;100.00
10145;BME280;5113;41.822;23.564;2022-09-04T00:10:10;-11342.13;;;14.73;100.00
10145;BME280;5113;41.822;23.564;2022-09-04T00:13:21;-11337.22;;;14.56;100.00
10145;BME280;5113;41.822;23.564;2022-09-04T00:16:36;-11346.78;;;14.90;100.00
10145;BME280;5113;41.822;23.564;2022-09-04T00:19:50;-11347.06;;;14.91;100.00
10145;BME280;5113;41.822;23.564;2022-09-04T00:23:04;-11344.81;;;14.83;100.00
10145;BME280;5113;41.822;23.564;2022-09-04T00:26:29;-11346.09;;;14.88;100.00
10145;BME280;5113;41.822;23.564;2022-09-04T00:29:43;-11340.31;;;14.67;100.00
10145;BME280;5113;41.822;23.564;2022-09-04T00:32:59;-11339.47;;;14.64;100.00
10145;BME280;5113;41.822;23.564;2022-09-04T00:36:09;-11322.69;;;14.03;100.00
10145;BME280;5113;41.822;23.564;2022-09-04T00:39:20;-11316.09;;;13.79;100.00
10145;BME280;5113;41.822;23.564;2022-09-04T00:46:47;-11311.28;;;13.62;100.00
10145;BME280;5113;41.822;23.564;2022-09-04T00:50:11;-11296.78;;;13.10;100.00
10145;BME280;5113;41.822;23.564;2022-09-04T00:53:38;-11299.34;;;13.19;100.00
10145;BME280;5113;41.822;23.564;2022-09-04T00:57:27;-11299.75;;;13.20;100.00
10145;BME280;5113;41.822;23.564;2022-09-04T01:00:39;-11303.69;;;13.35;100.00
10145;BME280;5113;41.822;23.564;2022-09-04T01:07:33;-11316.94;;;13.82;100.00
10145;BME280;5113;41.822;23.564;2022-09-04T01:10:52;-11329.03;;;14.26;100.00
10145;BME280;5113;41.822;23.564;2022-09-04T01:14:11;-11326.50;;;14.17;100.00
10145;BME280;5113;41.822;23.564;2022-09-04T01:17:24;-11315.66;;;13.78;100.00
10145;BME280;5113;41.822;23.564;2022-09-04T01:20:52;-11308.75;;;13.53;100.00
10145;BME280;5113;41.822;23.564;2022-09-04T01:24:29;-11293.13;;;12.97;100.00
10145;BME280;5113;41.822;23.564;2022-09-04T01:27:43;-11312.41;;;13.66;100.00
10145;BME280;5113;41.822;23.564;2022-09-04T01:30:59;-11323.13;;;14.05;100.00
10145;BME280;5113;41.822;23.564;2022-09-04T01:34:27;-11319.59;;;13.92;100.00
10145;BME280;5113;41.822;23.564;2022-09-04T01:37:44;-11321.28;;;13.98;100.00
10145;BME280;5113;41.822;23.564;2022-09-04T01:40:57;-11322.13;;;14.01;100.00
10145;BME280;5113;41.822;23.564;2022-09-04T01:44:09;-11320.44;;;13.95;100.00
10145;BME280;5113;41.822;23.564;2022-09-04T01:47:20;-11320.88;;;13.97;100.00
10145;BME280;5113;41.822;23.564;2022-09-04T01:50:31;-11318.47;;;13.88;100.00
10145;BME280;5113;41.822;23.564;2022-09-04T01:53:41;-11322.00;;;14.01;100.00
10145;BME280;5113;41.822;23.564;2022-09-04T01:56:57;-11308.91;;;13.53;100.00
10145;BME280;5113;41.822;23.564;2022-09-04T02:00:13;-11312.41;;;13.66;100.00
10145;BME280;5113;41.822;23.564;2022-09-04T02:03:25;-11301.16;;;13.26;100.00
10145;BME280;5113;41.822;23.564;2022-09-04T02:06:45;-11288.78;;;12.81;100.00
10145;BME280;5113;41.822;23.564;2022-09-04T02:10:02;-11281.59;;;12.55;100.00
10145;BME280;5113;41.822;23.564;2022-09-04T02:13:16;-11294.41;;;13.01;100.00
10145;BME280;5113;41.822;23.564;2022-09-04T02:16:31;-11293.00;;;12.96;100.00
10145;BME280;5113;41.822;23.564;2022-09-04T02:19:55;-11299.75;;;13.20;100.00
10145;BME280;5113;41.822;23.564;2022-09-04T02:23:13;-11295.81;;;13.06;100.00
10145;BME280;5113;41.822;23.564;2022-09-04T02:26:25;-11295.53;;;13.05;100.00
10145;BME280;5113;41.822;23.564;2022-09-04T02:29:38;-11295.09;;;13.04;100.00
10145;BME280;5113;41.822;23.564;2022-09-04T02:32:54;-11294.41;;;13.01;100.00
10145;BME280;5113;41.822;23.564;2022-09-04T02:36:09;-11301.72;;;13.28;100.00
10145;BME280;5113;41.822;23.564;2022-09-04T02:39:27;-11305.09;;;13.40;100.00
10145;BME280;5113;41.822;23.564;2022-09-04T02:42:49;-11309.88;;;13.57;100.00
10145;BME280;5113;41.822;23.564;2022-09-04T02:46:04;-11306.78;;;13.46;100.00
10145;BME280;5113;41.822;23.564;2022-09-04T02:49:22;-11303.56;;;13.34;100.00
10145;BME280;5113;41.822;23.564;2022-09-04T02:52:48;-11291.72;;;12.92;100.00
10145;BME280;5113;41.822;23.564;2022-09-04T02:56:14;-11285.53;;;12.69;100.00
10145;BME280;5113;41.822;23.564;2022-09-04T02:59:34;-11290.47;;;12.87;100.00
10145;BME280;5113;41.822;23.564;2022-09-04T03:02:49;-11291.44;;;12.90;100.00
10145;BME280;5113;41.822;23.564;2022-09-04T03:06:05;-11268.09;;;12.06;100.00
10145;BME280;5113;41.822;23.564;2022-09-04T03:09:20;-11261.75;;;11.83;100.00
10145;BME280;5113;41.822;23.564;2022-09-04T03:12:32;-11255.00;;;11.59;100.00
10145;BME280;5113;41.822;23.564;2022-09-04T03:15:44;-11254.72;;;11.58;100.00
10145;BME280;5113;41.822;23.564;2022-09-04T03:19:03;-11266.81;;;12.02;100.00
10145;BME280;5113;41.822;23.564;2022-09-04T03:22:18;-11279.19;;;12.46;100.00
10145;BME280;5113;41.822;23.564;2022-09-04T03:25:41;-11292.16;;;12.93;100.00
10145;BME280;5113;41.822;23.564;2022-09-04T03:29:01;-11278.34;;;12.43;100.00
10145;BME280;5113;41.822;23.564;2022-09-04T03:32:17;-11284.41;;;12.65;100.00
10145;BME280;5113;41.822;23.564;2022-09-04T03:35:33;-11280.03;;;12.49;100.00
10145;BME280;5113;41.822;23.564;2022-09-04T03:38:49;-11289.34;;;12.83;100.00
10145;BME280;5113;41.822;23.564;2022-09-04T03:42:06;-11300.75;;;13.24;100.00
10145;BME280;5113;41.822;23.564;2022-09-04T03:45:20;-11297.34;;;13.12;100.00
10145;BME280;5113;41.822;23.564;2022-09-04T03:48:52;-11267.94;;;12.06;100.00
10145;BME280;5113;41.822;23.564;2022-09-04T03:52:06;-11285.97;;;12.71;100.00
10145;BME280;5113;41.822;23.564;2022-09-04T03:55:34;-11291.03;;;12.89;100.00
10145;BME280;5113;41.822;23.564;2022-09-04T03:58:49;-11286.22;;;12.72;100.00
10145;BME280;5113;41.822;23.564;2022-09-04T04:02:04;-11280.03;;;12.49;100.00
10145;BME280;5113;41.822;23.564;2022-09-04T04:05:25;-11284.00;;;12.64;100.00
10145;BME280;5113;41.822;23.564;2022-09-04T04:08:48;-11289.63;;;12.84;100.00
10145;BME280;5113;41.822;23.564;2022-09-04T04:12:14;-11288.63;;;12.80;100.00
10145;BME280;5113;41.822;23.564;2022-09-04T04:15:31;-11289.91;;;12.85;100.00
10145;BME280;5113;41.822;23.564;2022-09-04T04:19:01;-11288.19;;;12.79;100.00
10145;BME280;5113;41.822;23.564;2022-09-04T04:22:28;-11291.16;;;12.89;100.00
10145;BME280;5113;41.822;23.564;2022-09-04T04:25:48;-11301.44;;;13.27;100.00
10145;BME280;5113;41.822;23.564;2022-09-04T04:29:13;-11304.81;;;13.39;100.00
10145;BME280;5113;41.822;23.564;2022-09-04T04:32:50;-11304.97;;;13.39;100.00
10145;BME280;5113;41.822;23.564;2022-09-04T04:36:05;-11307.78;;;13.49;100.00
10145;BME280;5113;41.822;23.564;2022-09-04T04:39:24;-11305.66;;;13.42;100.00
10145;BME280;5113;41.822;23.564;2022-09-04T04:42:41;-11292.72;;;12.95;100.00
10145;BME280;5113;41.822;23.564;2022-09-04T04:45:56;-11298.06;;;13.14;100.00
10145;BME280;5113;41.822;23.564;2022-09-04T04:49:31;-11305.94;;;13.43;100.00
10145;BME280;5113;41.822;23.564;2022-09-04T04:52:52;-11316.78;;;13.82;100.00
10145;BME280;5113;41.822;23.564;2022-09-04T04:56:05;-11321.72;;;14.00;100.00
10145;BME280;5113;41.822;23.564;2022-09-04T04:59:22;-11303.41;;;13.34;100.00
10145;BME280;5113;41.822;23.564;2022-09-04T05:02:36;-11328.19;;;14.23;100.00
10145;BME280;5113;41.822;23.564;2022-09-04T05:05:53;-11348.75;;;14.97;100.00
10145;BME280;5113;41.822;23.564;2022-09-04T05:09:10;-11339.75;;;14.65;100.00
10145;BME280;5113;41.822;23.564;2022-09-04T05:12:23;-11340.72;;;14.68;100.00
10145;BME280;5113;41.822;23.564;2022-09-04T05:15:39;-11348.63;;;14.97;100.00
10145;BME280;5113;41.822;23.564;2022-09-04T05:19:16;-11349.59;;;15.00;100.00
10145;BME280;5113;41.822;23.564;2022-09-04T05:22:33;-11357.06;;;15.27;100.00
10145;BME280;5113;41.822;23.564;2022-09-04T05:25:46;-11359.75;;;15.37;100.00
10145;BME280;5113;41.822;23.564;2022-09-04T05:29:00;-11368.47;;;15.68;100.00
10145;BME280;5113;41.822;23.564;2022-09-04T05:32:15;-11376.78;;;15.98;100.00
10145;BME280;5113;41.822;23.564;2022-09-04T05:35:30;-11383.97;;;16.24;100.00
10145;BME280;5113;41.822;23.564;2022-09-04T05:38:49;-11384.41;;;16.26;100.00
10145;BME280;5113;41.822;23.564;2022-09-04T05:42:17;-11395.25;;;16.65;100.00
10145;BME280;5113;41.822;23.564;2022-09-04T05:45:37;-11382.84;;;16.20;100.00
10145;BME280;5113;41.822;23.564;2022-09-04T05:48:57;-11390.75;;;16.48;100.00
10145;BME280;5113;41.822;23.564;2022-09-04T05:52:27;-11393.97;;;16.60;100.00
10145;BME280;5113;41.822;23.564;2022-09-04T05:56:05;-11410.06;;;17.18;100.00
10145;BME280;5113;41.822;23.564;2022-09-04T06:03:21;-11420.06;;;17.54;100.00
10145;BME280;5113;41.822;23.564;2022-09-04T06:06:37;-11418.38;;;17.48;100.00
10145;BME280;5113;41.822;23.564;2022-09-04T06:09:58;-11426.25;;;17.76;100.00
10145;BME280;5113;41.822;23.564;2022-09-04T06:13:38;-11428.66;;;17.85;100.00
10145;BME280;5113;41.822;23.564;2022-09-04T06:16:56;-11437.25;;;18.16;100.00
10145;BME280;5113;41.822;23.564;2022-09-04T06:20:18;-11435.84;;;18.11;100.00
10145;BME280;5113;41.822;23.564;2022-09-04T06:23:52;-11441.19;;;18.30;100.00
10145;BME280;5113;41.822;23.564;2022-09-04T06:27:26;-11442.91;;;18.36;100.00
10145;BME280;5113;41.822;23.564;2022-09-04T06:30:45;-11452.75;;;18.72;100.00
10145;BME280;5113;41.822;23.564;2022-09-04T06:33:59;-11461.78;;;19.04;100.00
10145;BME280;5113;41.822;23.564;2022-09-04T06:37:16;-11462.50;;;19.07;100.00
10145;BME280;5113;41.822;23.564;2022-09-04T06:40:38;-11456.28;;;18.85;100.00
10145;BME280;5113;41.822;23.564;2022-09-04T06:43:56;-11462.63;;;19.07;100.00
10145;BME280;5113;41.822;23.564;2022-09-04T06:47:18;-11474.91;;;19.52;100.00
10145;BME280;5113;41.822;23.564;2022-09-04T06:50:30;-11476.59;;;19.58;100.00
10145;BME280;5113;41.822;23.564;2022-09-04T06:53:49;-11480.53;;;19.72;100.00
10145;BME280;5113;41.822;23.564;2022-09-04T06:57:09;-11462.91;;;19.08;100.00
10145;BME280;5113;41.822;23.564;2022-09-04T07:00:20;-11472.78;;;19.44;100.00
10145;BME280;5113;41.822;23.564;2022-09-04T07:03:36;-11487.88;;;19.98;100.00
10145;BME280;5113;41.822;23.564;2022-09-04T07:06:53;-11482.66;;;19.79;100.00
10145;BME280;5113;41.822;23.564;2022-09-04T07:10:06;-11487.19;;;19.96;100.00
10145;BME280;5113;41.822;23.564;2022-09-04T07:13:38;-11503.53;;;20.55;100.00
10145;BME280;5113;41.822;23.564;2022-09-04T07:17:01;-11466.59;;;19.22;100.00
10145;BME280;5113;41.822;23.564;2022-09-04T07:20:18;-11482.94;;;19.81;100.00
10145;BME280;5113;41.822;23.564;2022-09-04T07:23:33;-11481.81;;;19.76;100.00
10145;BME280;5113;41.822;23.564;2022-09-04T07:26:48;-11483.78;;;19.84;100.00
10145;BME280;5113;41.822;23.564;2022-09-04T07:30:01;-11468.97;;;19.30;100.00
10145;BME280;5113;41.822;23.564;2022-09-04T07:33:15;-11491.53;;;20.11;100.00
10145;BME280;5113;41.822;23.564;2022-09-04T07:36:31;-11503.97;;;20.56;100.00
10145;BME280;5113;41.822;23.564;2022-09-04T07:39:45;-11506.62;;;20.66;100.00
10145;BME280;5113;41.822;23.564;2022-09-04T07:42:58;-11496.47;;;20.29;100.00
10145;BME280;5113;41.822;23.564;2022-09-04T07:46:15;-11495.91;;;20.27;100.00
10145;BME280;5113;41.822;23.564;2022-09-04T07:49:31;-11491.97;;;20.13;100.00
10145;BME280;5113;41.822;23.564;2022-09-04T07:52:56;-11511.72;;;20.84;100.00
10145;BME280;5113;41.822;23.564;2022-09-04T07:56:17;-11485.34;;;19.89;100.00
10145;BME280;5113;41.822;23.564;2022-09-04T08:03:29;-11527.25;;;21.40;97.06
10145;BME280;5113;41.822;23.564;2022-09-04T08:06:45;-11525.41;;;21.33;97.96
10145;BME280;5113;41.822;23.564;2022-09-04T08:10:11;-11540.34;;;21.87;92.80
10145;BME280;5113;41.822;23.564;2022-09-04T08:17:30;-11557.00;;;22.47;87.73
10145;BME280;5113;41.822;23.564;2022-09-04T08:20:44;-11565.19;;;22.77;90.69
10145;BME280;5113;41.822;23.564;2022-09-04T08:24:16;-11562.22;;;22.66;84.18
10145;BME280;5113;41.822;23.564;2022-09-04T08:27:42;-11537.97;;;21.79;86.00
10145;BME280;5113;41.822;23.564;2022-09-04T08:30:58;-11557.72;;;22.50;83.42
10145;BME280;5113;41.822;23.564;2022-09-04T08:34:38;-11567.03;;;22.83;83.75
10145;BME280;5113;41.822;23.564;2022-09-04T08:38:17;-11589.47;;;23.64;79.56
10145;BME280;5113;41.822;23.564;2022-09-04T08:42:07;-11583.69;;;23.43;75.78
10145;BME280;5113;41.822;23.564;2022-09-04T08:45:56;-11579.72;;;23.29;73.09
10145;BME280;5113;41.822;23.564;2022-09-04T08:53:15;-11584.81;;;23.47;73.41
10145;BME280;5113;41.822;23.564;2022-09-04T08:56:35;-11598.66;;;23.97;70.03
10145;BME280;5113;41.822;23.564;2022-09-04T09:00:03;-11594.56;;;23.82;68.94
10145;BME280;5113;41.822;23.564;2022-09-04T09:03:50;-11596.81;;;23.90;67.09
10145;BME280;5113;41.822;23.564;2022-09-04T09:07:42;-11612.34;;;24.46;64.89
10145;BME280;5113;41.822;23.564;2022-09-04T09:11:24;-11614.03;;;24.52;66.05
10145;BME280;5113;41.822;23.564;2022-09-04T09:15:10;-11611.91;;;24.45;64.41
10145;BME280;5113;41.822;23.564;2022-09-04T09:18:33;-11606.28;;;24.24;65.04
10145;BME280;5113;41.822;23.564;2022-09-04T09:21:45;-11622.66;;;24.83;68.48
10145;BME280;5113;41.822;23.564;2022-09-04T09:25:16;-11632.81;;;25.20;63.39
10145;BME280;5113;41.822;23.564;2022-09-04T09:39:58;-11638.47;;;25.40;60.74
10145;BME280;5113;41.822;23.564;2022-09-04T09:43:30;-11657.66;;;26.09;59.41
10145;BME280;5113;41.822;23.564;2022-09-04T09:47:06;-11638.19;;;25.39;60.08
10145;BME280;5113;41.822;23.564;2022-09-04T09:50:35;-11628.88;;;25.06;59.72
10145;BME280;5113;41.822;23.564;2022-09-04T09:54:18;-11630.69;;;25.12;57.02
10145;BME280;5113;41.822;23.564;2022-09-04T10:01:31;-11632.53;;;25.19;55.50
10145;BME280;5113;41.822;23.564;2022-09-04T10:05:16;-11639.31;;;25.43;54.15
10145;BME280;5113;41.822;23.564;2022-09-04T10:16:09;-11675.75;;;26.74;49.11
10145;BME280;5113;41.822;23.564;2022-09-04T10:23:40;-11688.31;;;27.19;47.25
10145;BME280;5113;41.822;23.564;2022-09-04T10:30:46;-11678.84;;;26.85;44.64
10145;BME280;5113;41.822;23.564;2022-09-04T10:34:14;-11661.75;;;26.24;44.74
10145;BME280;5113;41.822;23.564;2022-09-04T10:37:42;-11671.78;;;26.60;44.40
10145;BME280;5113;41.822;23.564;2022-09-04T10:41:33;-11672.22;;;26.61;45.60
10145;BME280;5113;41.822;23.564;2022-09-04T10:44:54;-11677.16;;;26.79;43.79
10145;BME280;5113;41.822;23.564;2022-09-04T10:48:18;-11689.59;;;27.24;43.84
10145;BME280;5113;41.822;23.564;2022-09-04T10:51:55;-11682.81;;;27.00;44.66
10145;BME280;5113;41.822;23.564;2022-09-04T10:55:18;-11668.69;;;26.49;43.79
10145;BME280;5113;41.822;23.564;2022-09-04T10:58:39;-11682.66;;;26.99;44.02
10145;BME280;5113;41.822;23.564;2022-09-04T11:05:39;-11668.41;;;26.48;43.10
10145;BME280;5113;41.822;23.564;2022-09-04T11:09:11;-11696.38;;;27.48;39.85
10145;BME280;5113;41.822;23.564;2022-09-04T11:12:38;-11693.25;;;27.37;42.06
10145;BME280;5113;41.822;23.564;2022-09-04T11:16:09;-11672.63;;;26.63;43.85
10145;BME280;5113;41.822;23.564;2022-09-04T11:19:58;-11685.63;;;27.10;42.24
10145;BME280;5113;41.822;23.564;2022-09-04T11:23:47;-11699.63;;;27.60;41.79
10145;BME280;5113;41.822;23.564;2022-09-04T11:30:54;-11702.31;;;27.70;40.71
10145;BME280;5113;41.822;23.564;2022-09-04T11:38:15;-11696.78;;;27.50;39.58
10145;BME280;5113;41.822;23.564;2022-09-04T11:41:54;-11673.34;;;26.65;40.95
10145;BME280;5113;41.822;23.564;2022-09-04T11:45:28;-11698.75;;;27.57;40.53
10145;BME280;5113;41.822;23.564;2022-09-04T11:48:58;-11695.38;;;27.45;39.20
10145;BME280;5113;41.822;23.564;2022-09-04T11:52:23;-11711.06;;;28.01;38.49
10145;BME280;5113;41.822;23.564;2022-09-04T11:59:20;-11730.41;;;28.71;39.28
10145;BME280;5113;41.822;23.564;2022-09-04T12:03:03;-11714.72;;;28.14;37.41
10145;BME280;5113;41.822;23.564;2022-09-04T12:06:25;-11718.81;;;28.29;36.67
10145;BME280;5113;41.822;23.564;2022-09-04T12:10:03;-11706.66;;;27.85;36.66
10145;BME280;5113;41.822;23.564;2022-09-04T12:20:48;-11718.69;;;28.29;39.01
10145;BME280;5113;41.822;23.564;2022-09-04T12:24:36;-11705.97;;;27.83;38.72
10145;BME280;5113;41.822;23.564;2022-09-04T12:28:14;-11715.56;;;28.17;39.54
10145;BME280;5113;41.822;23.564;2022-09-04T12:31:56;-11720.66;;;28.36;38.43
10145;BME280;5113;41.822;23.564;2022-09-04T12:42:53;-11681.97;;;26.96;39.97
10145;BME280;5113;41.822;23.564;2022-09-04T12:46:12;-11694.66;;;27.42;39.70
10145;BME280;5113;41.822;23.564;2022-09-04T12:49:32;-11685.34;;;27.09;40.00
10145;BME280;5113;41.822;23.564;2022-09-04T12:56:41;-11681.25;;;26.94;42.62
10145;BME280;5113;41.822;23.564;2022-09-04T13:00:01;-11662.31;;;26.26;43.17
10145;BME280;5113;41.822;23.564;2022-09-04T13:03:15;-11664.16;;;26.33;43.11
10145;BME280;5113;41.822;23.564;2022-09-04T13:06:33;-11666.72;;;26.42;43.94
10145;BME280;5113;41.822;23.564;2022-09-04T13:09:46;-11670.94;;;26.57;42.08
10145;BME280;5113;41.822;23.564;2022-09-04T13:13:10;-11682.81;;;27.00;40.86
10145;BME280;5113;41.822;23.564;2022-09-04T13:16:26;-11716.72;;;28.21;40.89
10145;BME280;5113;41.822;23.564;2022-09-04T13:19:40;-11669.53;;;26.52;42.40
10145;BME280;5113;41.822;23.564;2022-09-04T13:23:03;-11674.59;;;26.70;44.24
10145;BME280;5113;41.822;23.564;2022-09-04T13:26:29;-11672.34;;;26.62;44.01
10145;BME280;5113;41.822;23.564;2022-09-04T13:29:46;-11667.84;;;26.46;42.80
10145;BME280;5113;41.822;23.564;2022-09-04T13:33:25;-11655.13;;;26.00;44.15
10145;BME280;5113;41.822;23.564;2022-09-04T13:36:52;-11665.00;;;26.36;43.69
10145;BME280;5113;41.822;23.564;2022-09-04T13:40:14;-11654.41;;;25.97;45.58
10145;BME280;5113;41.822;23.564;2022-09-04T13:43:38;-11667.13;;;26.43;45.22
10145;BME280;5113;41.822;23.564;2022-09-04T13:46:58;-11657.66;;;26.09;44.61
10145;BME280;5113;41.822;23.564;2022-09-04T13:50:16;-11663.03;;;26.28;44.14
10145;BME280;5113;41.822;23.564;2022-09-04T13:53:32;-11670.09;;;26.54;45.58
10145;BME280;5113;41.822;23.564;2022-09-04T13:56:43;-11691.84;;;27.32;43.33
10145;BME280;5113;41.822;23.564;2022-09-04T13:59:56;-11690.00;;;27.25;42.26
10145;BME280;5113;41.822;23.564;2022-09-04T14:03:09;-11677.16;;;26.79;45.04
10145;BME280;5113;41.822;23.564;2022-09-04T14:06:21;-11694.53;;;27.42;43.21
10145;BME280;5113;41.822;23.564;2022-09-04T14:09:30;-11675.75;;;26.74;45.72
10145;BME280;5113;41.822;23.564;2022-09-04T14:12:58;-11683.94;;;27.04;46.50
10145;BME280;5113;41.822;23.564;2022-09-04T14:16:10;-11674.59;;;26.70;44.31
10145;BME280;5113;41.822;23.564;2022-09-04T14:19:28;-11672.34;;;26.62;46.86
10145;BME280;5113;41.822;23.564;2022-09-04T14:22:44;-11661.06;;;26.21;47.15
10145;BME280;5113;41.822;23.564;2022-09-04T14:26:01;-11668.69;;;26.49;48.01
10145;BME280;5113;41.822;23.564;2022-09-04T14:29:18;-11668.81;;;26.49;48.03
10145;BME280;5113;41.822;23.564;2022-09-04T14:32:32;-11660.91;;;26.21;48.45
10145;BME280;5113;41.822;23.564;2022-09-04T14:35:50;-11657.94;;;26.10;47.90
10145;BME280;5113;41.822;23.564;2022-09-04T14:39:19;-11661.19;;;26.22;46.83
10145;BME280;5113;41.822;23.564;2022-09-04T14:42:44;-11653.16;;;25.93;48.99
10145;BME280;5113;41.822;23.564;2022-09-04T14:46:02;-11642.69;;;25.55;48.94
10145;BME280;5113;41.822;23.564;2022-09-04T14:49:16;-11652.44;;;25.90;49.09
10145;BME280;5113;41.822;23.564;2022-09-04T14:52:27;-11635.34;;;25.29;50.29
10145;BME280;5113;41.822;23.564;2022-09-04T14:59:34;-11625.59;;;24.94;52.27
10145;BME280;5113;41.822;23.564;2022-09-04T15:02:45;-11628.16;;;25.03;52.23
10145;BME280;5113;41.822;23.564;2022-09-04T15:05:54;-11622.94;;;24.84;53.40
10145;BME280;5113;41.822;23.564;2022-09-04T15:09:21;-11621.09;;;24.78;55.47
10145;BME280;5113;41.822;23.564;2022-09-04T15:12:32;-11620.94;;;24.77;57.82
10145;BME280;5113;41.822;23.564;2022-09-04T15:15:45;-11618.13;;;24.67;59.09
10145;BME280;5113;41.822;23.564;2022-09-04T15:19:18;-11612.63;;;24.47;59.57
10145;BME280;5113;41.822;23.564;2022-09-04T15:22:36;-11616.16;;;24.60;57.04
10145;BME280;5113;41.822;23.564;2022-09-04T15:25:48;-11612.34;;;24.46;58.60
10145;BME280;5113;41.822;23.564;2022-09-04T15:29:09;-11601.63;;;24.08;60.94
10145;BME280;5113;41.822;23.564;2022-09-04T15:32:21;-11593.56;;;23.79;63.51
10145;BME280;5113;41.822;23.564;2022-09-04T15:35:29;-11602.03;;;24.09;62.04
10145;BME280;5113;41.822;23.564;2022-09-04T15:38:45;-11599.78;;;24.01;65.88
10145;BME280;5113;41.822;23.564;2022-09-04T15:41:54;-11598.94;;;23.98;66.21
10145;BME280;5113;41.822;23.564;2022-09-04T15:45:06;-11589.91;;;23.65;68.65
10145;BME280;5113;41.822;23.564;2022-09-04T15:48:41;-11591.88;;;23.73;69.10
10145;BME280;5113;41.822;23.564;2022-09-04T15:51:55;-11587.34;;;23.56;70.91
10145;BME280;5113;41.822;23.564;2022-09-04T15:55:19;-11587.06;;;23.55;71.28
10145;BME280;5113;41.822;23.564;2022-09-04T15:58:32;-11579.16;;;23.27;73.65
10145;BME280;5113;41.822;23.564;2022-09-04T16:01:47;-11584.25;;;23.45;72.87
10145;BME280;5113;41.822;23.564;2022-09-04T16:05:03;-11578.31;;;23.24;75.50
10145;BME280;5113;41.822;23.564;2022-09-04T16:08:18;-11583.97;;;23.44;73.78
10145;BME280;5113;41.822;23.564;2022-09-04T16:11:31;-11571.84;;;23.00;78.98
10145;BME280;5113;41.822;23.564;2022-09-04T16:14:43;-11578.31;;;23.24;79.12
10145;BME280;5113;41.822;23.564;2022-09-04T16:17:52;-11574.38;;;23.10;81.35
10145;BME280;5113;41.822;23.564;2022-09-04T16:21:04;-11572.13;;;23.01;80.21
10145;BME280;5113;41.822;23.564;2022-09-04T16:24:31;-11571.13;;;22.98;82.00
10145;BME280;5113;41.822;23.564;2022-09-04T16:27:43;-11571.56;;;22.99;83.88
10145;BME280;5113;41.822;23.564;2022-09-04T16:30:56;-11561.81;;;22.64;84.49
10145;BME280;5113;41.822;23.564;2022-09-04T16:34:11;-11553.19;;;22.33;82.23
10145;BME280;5113;41.822;23.564;2022-09-04T16:37:31;-11558.28;;;22.52;83.83
10145;BME280;5113;41.822;23.564;2022-09-04T16:40:45;-11554.91;;;22.39;79.77
10145;BME280;5113;41.822;23.564;2022-09-04T16:44:18;-11546.56;;;22.10;79.94
10145;BME280;5113;41.822;23.564;2022-09-04T16:47:32;-11545.00;;;22.04;80.14
10145;BME280;5113;41.822;23.564;2022-09-04T16:50:49;-11542.19;;;21.94;80.59
10145;BME280;5113;41.822;23.564;2022-09-04T16:54:00;-11541.22;;;21.90;78.69
10145;BME280;5113;41.822;23.564;2022-09-04T16:57:11;-11541.22;;;21.90;79.02
10145;BME280;5113;41.822;23.564;2022-09-04T17:00:18;-11536.56;;;21.73;79.07
10145;BME280;5113;41.822;23.564;2022-09-04T17:03:38;-11535.41;;;21.69;79.45
10145;BME280;5113;41.822;23.564;2022-09-04T17:06:56;-11532.75;;;21.60;78.86
10145;BME280;5113;41.822;23.564;2022-09-04T17:10:24;-11530.34;;;21.51;83.42
10145;BME280;5113;41.822;23.564;2022-09-04T17:13:44;-11522.72;;;21.24;84.25
10145;BME280;5113;41.822;23.564;2022-09-04T17:16:55;-11523.00;;;21.25;87.80
10145;BME280;5113;41.822;23.564;2022-09-04T17:20:06;-11526.53;;;21.37;84.47
10145;BME280;5113;41.822;23.564;2022-09-04T17:23:19;-11524.13;;;21.29;85.70
10145;BME280;5113;41.822;23.564;2022-09-04T17:26:54;-11522.16;;;21.22;92.58
10145;BME280;5113;41.822;23.564;2022-09-04T17:30:28;-11512.28;;;20.86;99.46
10145;BME280;5113;41.822;23.564;2022-09-04T17:33:42;-11508.63;;;20.73;100.00
10145;BME280;5113;41.822;23.564;2022-09-04T17:37:15;-11502.41;;;20.51;100.00
10145;BME280;5113;41.822;23.564;2022-09-04T17:40:54;-11498.44;;;20.36;100.00
10145;BME280;5113;41.822;23.564;2022-09-04T17:44:34;-11496.34;;;20.29;100.00
10145;BME280;5113;41.822;23.564;2022-09-04T17:47:43;-11494.50;;;20.22;100.00
10145;BME280;5113;41.822;23.564;2022-09-04T17:50:52;-11494.22;;;20.21;100.00
10145;BME280;5113;41.822;23.564;2022-09-04T17:54:04;-11498.75;;;20.37;100.00
10145;BME280;5113;41.822;23.564;2022-09-04T17:57:21;-11495.63;;;20.26;100.00
10145;BME280;5113;41.822;23.564;2022-09-04T18:00:49;-11494.78;;;20.23;100.00
10145;BME280;5113;41.822;23.564;2022-09-04T18:04:24;-11504.81;;;20.59;100.00
10145;BME280;5113;41.822;23.564;2022-09-04T18:07:34;-11491.69;;;20.12;100.00
10145;BME280;5113;41.822;23.564;2022-09-04T18:11:08;-11491.69;;;20.12;100.00
10145;BME280;5113;41.822;23.564;2022-09-04T18:14:23;-11488.88;;;20.02;100.00
10145;BME280;5113;41.822;23.564;2022-09-04T18:17:34;-11494.78;;;20.23;100.00
10145;BME280;5113;41.822;23.564;2022-09-04T18:20:45;-11498.16;;;20.35;100.00
10145;BME280;5113;41.822;23.564;2022-09-04T18:23:59;-11497.03;;;20.31;100.00
10145;BME280;5113;41.822;23.564;2022-09-04T18:27:12;-11494.38;;;20.22;100.00
10145;BME280;5113;41.822;23.564;2022-09-04T18:30:19;-11491.41;;;20.11;100.00
10145;BME280;5113;41.822;23.564;2022-09-04T18:33:58;-11483.09;;;19.81;100.00
10145;BME280;5113;41.822;23.564;2022-09-04T18:37:29;-11486.47;;;19.93;100.00
10145;BME280;5113;41.822;23.564;2022-09-04T18:40:51;-11483.94;;;19.84;100.00
10145;BME280;5113;41.822;23.564;2022-09-04T18:44:21;-11486.31;;;19.93;100.00
10145;BME280;5113;41.822;23.564;2022-09-04T18:47:52;-11489.44;;;20.04;100.00
10145;BME280;5113;41.822;23.564;2022-09-04T18:51:22;-11488.88;;;20.02;100.00
10145;BME280;5113;41.822;23.564;2022-09-04T18:54:38;-11488.31;;;20.00;100.00